createdAt,value
2023-03-11T04:10:42.228Z,3.10
2023-03-11T04:12:15.469Z,3.00
2023-03-11T04:13:47.522Z,3.00
2023-03-11T04:15:19.292Z,3.00
2023-03-11T04:16:51.368Z,3.00
2023-03-11T04:18:23.625Z,3.00
2023-03-11T04:19:55.297Z,3.00
2023-03-11T04:21:27.035Z,3.00
2023-03-11T04:22:59.935Z,3.00
2023-03-11T04:24:31.980Z,3.00
2023-03-11T04:26:04.308Z,3.00
2023-03-11T04:27:38.319Z,3.00
2023-03-11T04:29:11.003Z,3.00
2023-03-11T04:30:47.206Z,3.00
2023-03-11T04:32:18.994Z,3.00
2023-03-11T04:33:51.134Z,3.10
2023-03-11T04:35:23.126Z,3.00
2023-03-11T04:36:55.954Z,3.00
2023-03-11T04:38:33.286Z,3.00
2023-03-11T04:40:06.876Z,3.00
2023-03-11T04:41:39.613Z,3.10
2023-03-11T04:43:12.319Z,3.00
2023-03-11T04:44:44.014Z,3.10
2023-03-11T04:46:16.068Z,3.00
2023-03-11T04:47:49.572Z,3.10
2023-03-11T04:49:21.496Z,3.00
2023-03-11T04:50:55.504Z,3.00
2023-03-11T04:52:28.015Z,3.00
2023-03-11T04:54:00.244Z,3.00
2023-03-11T04:55:33.927Z,3.00
2023-03-11T04:57:06.092Z,3.00
2023-03-11T04:58:38.160Z,3.00
2023-03-11T05:00:12.177Z,3.00
2023-03-11T05:01:47.050Z,3.00
2023-03-11T05:03:19.272Z,3.00
2023-03-11T05:04:51.179Z,3.00
2023-03-11T05:06:22.956Z,3.00
2023-03-11T05:07:54.705Z,3.00
2023-03-11T05:09:26.785Z,3.00
2023-03-11T05:10:58.722Z,3.00
2023-03-11T05:12:30.640Z,3.00
2023-03-11T05:14:02.455Z,3.00
2023-03-11T05:15:34.285Z,3.00
2023-03-11T05:17:07.969Z,3.00
2023-03-11T05:18:39.769Z,3.00
2023-03-11T05:20:15.495Z,2.90
2023-03-11T05:21:47.356Z,2.90
2023-03-11T05:23:19.462Z,3.00
2023-03-11T05:24:51.204Z,3.00
2023-03-11T05:26:23.037Z,3.00
2023-03-11T05:27:54.797Z,2.90
2023-03-11T05:29:26.826Z,2.90
2023-03-11T05:30:59.435Z,2.90
2023-03-11T05:32:31.559Z,2.90
2023-03-11T05:34:03.538Z,2.90
2023-03-11T05:35:35.555Z,2.90
2023-03-11T05:37:07.912Z,2.90
2023-03-11T05:38:40.019Z,2.90
2023-03-11T05:40:12.467Z,2.90
2023-03-11T05:41:44.233Z,2.90
2023-03-11T05:43:16.233Z,2.90
2023-03-11T05:44:51.484Z,2.90
2023-03-11T05:46:23.709Z,2.90
2023-03-11T05:47:55.485Z,2.80
2023-03-11T05:49:27.555Z,2.80
2023-03-11T05:51:00.078Z,2.80
2023-03-11T05:52:33.716Z,2.80
2023-03-11T05:54:11.305Z,2.80
2023-03-11T05:55:44.596Z,2.80
2023-03-11T05:57:16.359Z,2.80
2023-03-11T05:58:50.430Z,2.80
2023-03-11T06:00:22.847Z,2.70
2023-03-11T06:01:57.143Z,2.70
2023-03-11T06:03:29.495Z,2.70
2023-03-11T06:05:01.433Z,2.70
2023-03-11T06:06:33.396Z,2.70
2023-03-11T06:08:05.138Z,2.70
2023-03-11T06:09:37.064Z,2.70
2023-03-11T06:11:11.247Z,2.70
2023-03-11T06:12:44.703Z,2.60
2023-03-11T06:14:32.592Z,2.60
2023-03-11T06:16:07.003Z,2.60
2023-03-11T06:17:38.762Z,2.60
2023-03-11T06:19:11.577Z,2.60
2023-03-11T06:20:47.612Z,2.60
2023-03-11T06:22:19.378Z,2.60
2023-03-11T06:23:51.362Z,2.60
2023-03-11T06:25:23.798Z,2.60
2023-03-11T06:26:56.794Z,2.60
2023-03-11T06:28:31.173Z,2.60
2023-03-11T06:30:03.666Z,2.50
2023-03-11T06:31:40.094Z,2.50
2023-03-11T06:33:15.016Z,2.50
2023-03-11T06:34:51.669Z,2.50
2023-03-11T06:36:23.893Z,2.50
2023-03-11T06:37:56.037Z,2.50
2023-03-11T06:39:27.869Z,2.50
2023-03-11T06:41:04.930Z,2.50
2023-03-11T06:42:37.553Z,2.50
2023-03-11T06:44:11.784Z,2.50
2023-03-11T06:45:44.529Z,2.50
2023-03-11T06:47:16.749Z,2.50
2023-03-11T06:48:52.150Z,2.50
2023-03-11T06:50:25.952Z,2.50
2023-03-11T06:51:59.281Z,2.50
2023-03-11T06:53:31.113Z,2.50
2023-03-11T06:55:03.937Z,2.50
2023-03-11T06:56:36.812Z,2.50
2023-03-11T06:58:11.450Z,2.50
2023-03-11T06:59:43.261Z,2.50
2023-03-11T07:01:25.550Z,2.50
2023-03-11T07:02:59.245Z,2.50
2023-03-11T07:04:32.126Z,2.50
2023-03-11T07:06:06.618Z,2.50
2023-03-11T07:07:38.539Z,2.50
2023-03-11T07:09:10.348Z,2.50
2023-03-11T07:10:46.742Z,2.50
2023-03-11T07:12:18.445Z,2.50
2023-03-11T07:13:51.108Z,2.50
2023-03-11T07:15:22.988Z,2.50
2023-03-11T07:16:54.790Z,2.50
2023-03-11T07:18:33.854Z,2.50
2023-03-11T07:20:06.998Z,2.50
2023-03-11T07:21:39.439Z,2.50
2023-03-11T07:23:11.204Z,2.50
2023-03-11T07:24:46.571Z,2.50
2023-03-11T07:26:18.737Z,2.50
2023-03-11T07:27:50.562Z,2.50
2023-03-11T07:29:22.276Z,2.60
2023-03-11T07:30:54.243Z,2.60
2023-03-11T07:32:26.037Z,2.60
2023-03-11T07:34:00.434Z,2.60
2023-03-11T07:35:32.251Z,2.60
2023-03-11T07:37:04.219Z,2.60
2023-03-11T07:38:36.523Z,2.70
2023-03-11T07:40:08.936Z,2.70
2023-03-11T07:41:40.732Z,2.60
2023-03-11T07:43:12.486Z,2.70
2023-03-11T07:44:44.254Z,2.60
2023-03-11T07:46:18.447Z,2.70
2023-03-11T07:47:50.329Z,2.70
2023-03-11T07:49:22.049Z,2.70
2023-03-11T07:51:07.452Z,2.70
2023-03-11T07:52:39.809Z,2.70
2023-03-11T07:54:12.778Z,2.70
2023-03-11T07:55:44.601Z,2.70
2023-03-11T07:57:17.128Z,2.70
2023-03-11T07:58:49.123Z,2.70
2023-03-11T08:00:21.122Z,2.70
2023-03-11T08:01:52.826Z,2.70
2023-03-11T08:03:25.246Z,2.70
2023-03-11T08:04:57.280Z,2.80
2023-03-11T08:06:31.583Z,2.80
2023-03-11T08:08:03.684Z,2.80
2023-03-11T08:09:36.210Z,2.80
2023-03-11T08:11:08.461Z,2.90
2023-03-11T08:12:40.158Z,2.90
2023-03-11T08:14:12.207Z,2.90
2023-03-11T08:15:44.031Z,3.00
2023-03-11T08:17:15.760Z,3.00
2023-03-11T08:18:49.152Z,3.00
2023-03-11T08:20:21.161Z,3.00
2023-03-11T08:21:52.838Z,3.10
2023-03-11T08:23:24.688Z,3.10
2023-03-11T08:24:56.548Z,3.20
2023-03-11T08:26:29.481Z,3.10
2023-03-11T08:28:01.204Z,3.20
2023-03-11T08:29:33.496Z,3.20
2023-03-11T08:31:16.390Z,3.20
2023-03-11T08:32:49.334Z,3.30
2023-03-11T08:34:22.288Z,3.30
2023-03-11T08:35:54.682Z,3.30
2023-03-11T08:37:26.400Z,3.40
2023-03-11T08:38:58.920Z,3.40
2023-03-11T08:40:30.709Z,3.40
2023-03-11T08:42:03.195Z,3.40
2023-03-11T08:43:35.209Z,3.40
2023-03-11T08:45:08.009Z,3.50
2023-03-11T08:46:39.940Z,3.50
2023-03-11T08:48:12.693Z,3.60
2023-03-11T08:49:44.801Z,3.60
2023-03-11T08:51:17.848Z,3.60
2023-03-11T08:52:49.624Z,3.60
2023-03-11T08:54:24.122Z,3.60
2023-03-11T08:55:55.859Z,3.60
2023-03-11T08:57:27.641Z,3.70
2023-03-11T08:59:08.519Z,3.70
2023-03-11T09:00:40.304Z,3.70
2023-03-11T09:02:12.004Z,3.70
2023-03-11T09:03:43.672Z,3.70
2023-03-11T09:05:15.672Z,3.70
2023-03-11T09:06:49.297Z,3.80
2023-03-11T09:08:20.993Z,3.80
2023-03-11T09:09:52.772Z,3.90
2023-03-11T09:11:24.748Z,3.80
2023-03-11T09:12:56.478Z,3.80
2023-03-11T09:14:28.318Z,3.80
2023-03-11T09:16:00.282Z,3.90
2023-03-11T09:17:32.146Z,3.90
2023-03-11T09:19:06.931Z,3.90
2023-03-11T09:20:39.548Z,3.90
2023-03-11T09:22:11.859Z,3.90
2023-03-11T09:23:44.623Z,4.00
2023-03-11T09:25:16.794Z,3.90
2023-03-11T09:26:48.503Z,4.00
2023-03-11T09:28:20.179Z,4.00
2023-03-11T09:29:51.881Z,4.10
2023-03-11T09:31:24.218Z,4.10
2023-03-11T09:32:56.028Z,4.10
2023-03-11T09:34:27.767Z,4.10
2023-03-11T09:35:59.723Z,4.20
2023-03-11T09:37:31.425Z,4.10
2023-03-11T09:39:03.185Z,4.20
2023-03-11T09:40:47.318Z,4.20
2023-03-11T09:42:38.577Z,4.20
2023-03-11T09:44:34.758Z,4.20
2023-03-11T09:46:20.833Z,4.30
2023-03-11T09:48:04.089Z,4.30
2023-03-11T09:49:44.510Z,4.30
2023-03-11T09:51:25.741Z,4.30
2023-03-11T09:53:26.215Z,4.40
2023-03-11T09:54:59.740Z,4.50
2023-03-11T09:56:34.464Z,4.40
2023-03-11T09:58:17.918Z,4.40
2023-03-11T09:59:50.322Z,4.40
2023-03-11T10:01:30.847Z,4.40
2023-03-11T10:03:06.403Z,4.50
2023-03-11T10:05:02.559Z,4.50
2023-03-11T10:06:34.361Z,4.50
2023-03-11T10:08:19.593Z,4.50
2023-03-11T10:09:58.628Z,4.60
2023-03-11T10:11:51.500Z,4.60
2023-03-11T10:13:36.985Z,4.60
2023-03-11T10:15:24.738Z,4.60
2023-03-11T10:17:20.370Z,4.60
2023-03-11T10:19:10.886Z,4.70
2023-03-11T10:20:58.535Z,4.70
2023-03-11T10:22:59.429Z,4.80
2023-03-11T10:24:50.193Z,4.80
2023-03-11T10:26:41.526Z,4.80
2023-03-11T10:28:16.629Z,4.80
2023-03-11T10:30:03.876Z,4.80
2023-03-11T10:31:49.006Z,4.80
2023-03-11T10:33:33.987Z,4.80
2023-03-11T10:35:24.007Z,4.80
2023-03-11T10:37:03.797Z,4.80
2023-03-11T10:38:48.911Z,4.90
2023-03-11T10:40:30.649Z,4.90
2023-03-11T10:42:05.807Z,4.80
2023-03-11T10:43:41.283Z,4.80
2023-03-11T10:45:14.562Z,4.80
2023-03-11T10:46:46.462Z,4.80
2023-03-11T10:48:19.978Z,4.80
2023-03-11T10:49:54.887Z,4.80
2023-03-11T10:51:35.734Z,4.80
2023-03-11T10:53:15.764Z,4.80
2023-03-11T10:54:58.471Z,4.80
2023-03-11T10:56:34.358Z,4.80
2023-03-11T10:58:12.570Z,4.80
2023-03-11T10:59:49.592Z,4.80
2023-03-11T11:01:22.245Z,4.80
2023-03-11T11:02:59.877Z,4.80
2023-03-11T11:04:41.152Z,4.80
2023-03-11T11:06:36.767Z,4.80
2023-03-11T11:08:17.077Z,4.80
2023-03-11T11:10:16.922Z,4.80
2023-03-11T11:12:07.057Z,4.80
2023-03-11T11:13:38.897Z,4.80
2023-03-11T11:15:31.067Z,4.80
2023-03-11T11:17:02.798Z,4.80
2023-03-11T11:18:45.681Z,4.90
2023-03-11T11:20:20.253Z,4.90
2023-03-11T11:21:52.326Z,4.90
2023-03-11T11:23:26.988Z,4.90
2023-03-11T11:24:58.903Z,5.00
2023-03-11T11:26:30.736Z,5.00
2023-03-11T11:28:20.846Z,5.00
2023-03-11T11:30:08.702Z,5.00
2023-03-11T11:31:45.246Z,5.00
2023-03-11T11:33:33.076Z,5.00
2023-03-11T11:35:08.022Z,5.00
2023-03-11T11:36:40.188Z,5.00
2023-03-11T11:38:11.964Z,5.00
2023-03-11T11:39:52.173Z,5.00
2023-03-11T11:41:26.574Z,5.00
2023-03-11T11:43:19.614Z,5.00
2023-03-11T11:45:12.343Z,5.10
2023-03-11T11:46:51.034Z,5.00
2023-03-11T11:48:39.496Z,5.00
2023-03-11T11:50:18.144Z,5.10
2023-03-11T11:52:18.250Z,5.10
2023-03-11T11:54:02.607Z,5.10
2023-03-11T11:55:35.441Z,5.10
2023-03-11T11:57:13.525Z,5.10
2023-03-11T11:58:45.496Z,5.10
2023-03-11T12:00:24.831Z,5.20
2023-03-11T12:02:13.201Z,5.20
2023-03-11T12:04:00.277Z,5.20
2023-03-11T12:05:35.792Z,5.20
2023-03-11T12:07:44.815Z,5.20
2023-03-11T12:09:38.646Z,5.20
2023-03-11T12:11:26.193Z,5.20
2023-03-11T12:13:22.637Z,5.20
2023-03-11T12:15:02.741Z,5.20
2023-03-11T12:16:57.090Z,5.30
2023-03-11T12:18:40.383Z,5.30
2023-03-11T12:20:15.506Z,5.30
2023-03-11T12:22:08.378Z,5.30
2023-03-11T12:23:40.019Z,5.30
2023-03-11T12:25:22.585Z,5.30
2023-03-11T12:26:58.940Z,5.30
2023-03-11T12:28:36.424Z,5.30
2023-03-11T12:30:22.264Z,5.30
2023-03-11T12:31:56.782Z,5.40
2023-03-11T12:33:42.470Z,5.40
2023-03-11T12:35:32.141Z,5.30
2023-03-11T12:37:14.586Z,5.30
2023-03-11T12:38:47.998Z,5.30
2023-03-11T12:40:50.132Z,5.40
2023-03-11T12:42:25.158Z,5.40
2023-03-11T12:44:00.408Z,5.40
2023-03-11T12:45:52.476Z,5.40
2023-03-11T12:47:28.735Z,5.40
2023-03-11T12:49:11.963Z,5.40
2023-03-11T12:50:43.793Z,5.50
2023-03-11T12:52:27.971Z,5.40
2023-03-11T12:54:19.675Z,5.50
2023-03-11T12:56:05.543Z,5.50
2023-03-11T12:57:44.646Z,5.50
2023-03-11T12:59:16.422Z,5.50
2023-03-11T13:01:07.147Z,5.50
2023-03-11T13:03:00.227Z,5.50
2023-03-11T13:05:01.682Z,5.60
2023-03-11T13:07:04.221Z,5.60
2023-03-11T13:08:54.775Z,5.60
2023-03-11T13:10:45.161Z,5.70
2023-03-11T13:12:45.235Z,5.60
2023-03-11T13:14:31.756Z,5.60
2023-03-11T13:16:12.639Z,5.60
2023-03-11T13:18:14.804Z,5.60
2023-03-11T13:19:57.241Z,5.60
2023-03-11T13:21:29.835Z,5.70
2023-03-11T13:23:01.450Z,5.60
2023-03-11T13:24:33.096Z,5.70
2023-03-11T13:26:13.818Z,5.80
2023-03-11T13:27:49.292Z,5.80
2023-03-11T13:29:44.427Z,5.70
2023-03-11T13:31:21.534Z,5.80
2023-03-11T13:33:17.136Z,5.70
2023-03-11T13:34:57.443Z,5.80
2023-03-11T13:36:49.873Z,5.80
2023-03-11T13:39:00.395Z,5.80
2023-03-11T13:40:38.146Z,5.80
2023-03-11T13:42:33.304Z,5.80
2023-03-11T13:44:24.458Z,5.90
2023-03-11T13:46:07.175Z,5.90
2023-03-11T13:47:44.828Z,5.90
2023-03-11T13:49:52.131Z,5.90
2023-03-11T13:51:35.210Z,5.90
2023-03-11T13:53:11.273Z,5.90
2023-03-11T13:54:52.987Z,5.90
2023-03-11T13:56:31.510Z,5.90
2023-03-11T13:58:24.431Z,5.90
2023-03-11T14:00:03.850Z,5.90
2023-03-11T14:01:49.470Z,5.90
2023-03-11T14:03:24.118Z,5.90
2023-03-11T14:05:05.328Z,5.90
2023-03-11T14:06:37.052Z,5.90
2023-03-11T14:08:29.662Z,5.90
2023-03-11T14:10:29.849Z,5.90
2023-03-11T14:12:07.750Z,5.90
2023-03-11T14:13:43.920Z,6.00
2023-03-11T14:15:24.598Z,6.00
2023-03-11T14:17:01.483Z,6.00
2023-03-11T14:18:39.217Z,6.00
2023-03-11T14:20:22.052Z,6.00
2023-03-11T14:21:54.749Z,6.00
2023-03-11T14:23:32.620Z,6.00
2023-03-11T14:25:10.896Z,6.00
2023-03-11T14:26:43.388Z,6.00
2023-03-11T14:28:20.878Z,6.00
2023-03-11T14:29:52.828Z,6.00
2023-03-11T14:31:36.637Z,6.00
2023-03-11T14:33:23.976Z,6.00
2023-03-11T14:34:56.623Z,6.00
2023-03-11T14:36:28.335Z,6.00
2023-03-11T14:38:00.592Z,6.00
2023-03-11T14:39:34.076Z,6.00
2023-03-11T14:41:06.850Z,6.00
2023-03-11T14:42:43.565Z,6.00
2023-03-11T14:44:15.489Z,6.00
2023-03-11T14:45:49.549Z,6.00
2023-03-11T14:47:43.469Z,6.00
2023-03-11T14:49:21.178Z,6.00
2023-03-11T14:50:58.127Z,6.00
2023-03-11T14:52:44.902Z,6.00
2023-03-11T14:54:30.982Z,6.00
2023-03-11T14:56:15.970Z,6.00
2023-03-11T14:57:59.530Z,6.00
2023-03-11T14:59:33.226Z,6.00
2023-03-11T15:01:20.320Z,6.00
2023-03-11T15:03:18.529Z,6.00
2023-03-11T15:04:51.631Z,5.90
2023-03-11T15:06:27.358Z,5.90
2023-03-11T15:08:02.610Z,5.90
2023-03-11T15:09:40.248Z,5.90
2023-03-11T15:11:11.880Z,5.90
2023-03-11T15:12:45.214Z,5.90
2023-03-11T15:14:35.361Z,5.90
2023-03-11T15:16:21.857Z,5.90
2023-03-11T15:17:56.384Z,5.90
2023-03-11T15:19:28.111Z,5.90
2023-03-11T15:21:13.548Z,5.90
2023-03-11T15:22:45.247Z,6.00
2023-03-11T15:24:28.571Z,6.00
2023-03-11T15:26:00.490Z,6.00
2023-03-11T15:27:33.568Z,6.00
2023-03-11T15:29:15.419Z,6.00
2023-03-11T15:30:47.304Z,6.00
2023-03-11T15:32:35.860Z,6.00
2023-03-11T15:34:16.827Z,6.00
2023-03-11T15:35:49.335Z,6.00
2023-03-11T15:37:21.889Z,6.00
2023-03-11T15:39:19.515Z,6.00
2023-03-11T15:40:57.972Z,6.00
2023-03-11T15:42:29.738Z,6.00
2023-03-11T15:44:03.972Z,6.00
2023-03-11T15:45:39.812Z,6.00
2023-03-11T15:47:17.756Z,6.00
2023-03-11T15:48:49.564Z,6.00
2023-03-11T15:50:28.567Z,6.00
2023-03-11T15:52:04.062Z,6.00
2023-03-11T15:53:35.787Z,6.10
2023-03-11T15:55:09.552Z,6.00
2023-03-11T15:56:44.241Z,6.00
2023-03-11T15:58:17.783Z,6.00
2023-03-11T15:59:51.126Z,6.00
2023-03-11T16:01:28.398Z,6.00
2023-03-11T16:03:02.733Z,6.00
2023-03-11T16:04:34.604Z,6.00
2023-03-11T16:06:06.687Z,6.00
2023-03-11T16:07:40.073Z,6.10
2023-03-11T16:09:12.770Z,6.10
2023-03-11T16:10:44.800Z,6.00
2023-03-11T16:12:21.961Z,6.00
2023-03-11T16:13:53.694Z,6.00
2023-03-11T16:15:31.080Z,6.10
2023-03-11T16:17:02.960Z,6.00
2023-03-11T16:18:35.651Z,6.00
2023-03-11T16:20:07.610Z,6.10
2023-03-11T16:21:49.287Z,6.10
2023-03-11T16:23:26.299Z,6.10
2023-03-11T16:24:59.777Z,6.10
2023-03-11T16:26:32.410Z,6.10
2023-03-11T16:28:04.953Z,6.10
2023-03-11T16:29:36.767Z,6.10
2023-03-11T16:31:09.459Z,6.00
2023-03-11T16:32:41.234Z,6.00
2023-03-11T16:34:13.176Z,6.00
2023-03-11T16:35:45.682Z,6.00
2023-03-11T16:37:20.736Z,6.00
2023-03-11T16:38:52.518Z,6.00
2023-03-11T16:40:27.144Z,6.00
2023-03-11T16:41:58.908Z,6.00
2023-03-11T16:43:31.996Z,6.00
2023-03-11T16:45:04.209Z,6.00
2023-03-11T16:46:36.063Z,6.00
2023-03-11T16:48:08.007Z,6.00
2023-03-11T16:49:39.704Z,6.00
2023-03-11T16:51:11.456Z,6.00
2023-03-11T16:52:43.209Z,6.00
2023-03-11T16:54:14.936Z,6.00
2023-03-11T16:55:46.991Z,6.00
2023-03-11T16:57:18.758Z,6.00
2023-03-11T16:58:50.650Z,6.00
2023-03-11T17:00:22.363Z,6.00
2023-03-11T17:01:54.119Z,6.00
2023-03-11T17:03:29.375Z,6.00
2023-03-11T17:05:04.612Z,6.00
2023-03-11T17:06:36.453Z,5.90
2023-03-11T17:08:08.536Z,5.90
2023-03-11T17:09:40.240Z,6.00
2023-03-11T17:11:20.629Z,5.90
2023-03-11T17:12:52.600Z,5.90
2023-03-11T17:14:25.709Z,5.80
2023-03-11T17:16:01.560Z,5.80
2023-03-11T17:17:33.504Z,5.80
2023-03-11T17:19:05.199Z,5.80
2023-03-11T17:20:40.496Z,5.70
2023-03-11T17:22:13.495Z,5.70
2023-03-11T17:23:45.462Z,5.70
2023-03-11T17:25:17.231Z,5.70
2023-03-11T17:26:48.977Z,5.70
2023-03-11T17:28:20.797Z,5.60
2023-03-11T17:29:54.852Z,5.60
2023-03-11T17:31:26.807Z,5.60
2023-03-11T17:32:58.643Z,5.60
2023-03-11T17:34:30.458Z,5.60
2023-03-11T17:36:03.721Z,5.70
2023-03-11T17:37:35.742Z,5.70
2023-03-11T17:39:07.441Z,5.70
2023-03-11T17:40:39.229Z,5.70
2023-03-11T17:42:10.927Z,5.70
2023-03-11T17:43:43.053Z,5.70
2023-03-11T17:45:14.950Z,5.60
2023-03-11T17:46:46.709Z,5.60
2023-03-11T17:48:18.502Z,5.60
2023-03-11T17:49:50.332Z,5.60
2023-03-11T17:51:25.582Z,5.50
2023-03-11T17:52:57.639Z,5.50
2023-03-11T17:54:29.398Z,5.50
2023-03-11T17:56:01.200Z,5.50
2023-03-11T17:57:44.424Z,5.50
2023-03-11T17:59:18.018Z,5.40
2023-03-11T18:00:49.828Z,5.40
2023-03-11T18:02:21.661Z,5.40
2023-03-11T18:03:53.934Z,5.30
2023-03-11T18:05:25.617Z,5.30
2023-03-11T18:06:57.348Z,5.30
2023-03-11T18:08:29.680Z,5.20
2023-03-11T18:10:01.363Z,5.20
2023-03-11T18:11:33.129Z,5.20
2023-03-11T18:13:04.858Z,5.20
2023-03-11T18:14:37.059Z,5.10
2023-03-11T18:16:12.694Z,5.10
2023-03-11T18:17:46.368Z,5.10
2023-03-11T18:19:18.109Z,5.10
2023-03-11T18:20:49.869Z,5.00
2023-03-11T18:22:21.550Z,5.00
2023-03-11T18:23:58.108Z,5.00
2023-03-11T18:25:29.986Z,5.00
2023-03-11T18:27:01.713Z,4.90
2023-03-11T18:28:34.120Z,4.90
2023-03-11T18:30:08.084Z,4.90
2023-03-11T18:31:40.186Z,4.90
2023-03-11T18:33:12.283Z,4.90
2023-03-11T18:34:44.087Z,4.90
2023-03-11T18:36:21.893Z,4.90
2023-03-11T18:37:53.581Z,4.80
2023-03-11T18:39:25.383Z,4.80
2023-03-11T18:40:57.951Z,4.80
2023-03-11T18:42:29.688Z,4.80
2023-03-11T18:44:02.086Z,4.70
2023-03-11T18:45:34.153Z,4.70
2023-03-11T18:47:05.985Z,4.70
2023-03-11T18:48:38.382Z,4.70
2023-03-11T18:50:11.062Z,4.70
2023-03-11T18:51:43.010Z,4.60
2023-03-11T18:53:14.660Z,4.60
2023-03-11T18:54:46.451Z,4.60
2023-03-11T18:56:18.415Z,4.60
2023-03-11T18:57:50.178Z,4.50
2023-03-11T18:59:21.896Z,4.60
2023-03-11T19:00:53.727Z,4.50
2023-03-11T19:02:26.075Z,4.50
2023-03-11T19:03:59.737Z,4.50
2023-03-11T19:05:31.450Z,4.50
2023-03-11T19:07:03.171Z,4.40
2023-03-11T19:08:34.912Z,4.40
2023-03-11T19:10:06.880Z,4.40
2023-03-11T19:11:38.584Z,4.40
2023-03-11T19:13:10.948Z,4.40
2023-03-11T19:14:42.759Z,4.30
2023-03-11T19:16:17.756Z,4.30
2023-03-11T19:18:04.250Z,4.30
2023-03-11T19:19:37.758Z,4.30
2023-03-11T19:21:12.453Z,4.30
2023-03-11T19:22:44.136Z,4.30
2023-03-11T19:24:15.972Z,4.20
2023-03-11T19:26:02.540Z,4.20
2023-03-11T19:27:35.133Z,4.20
2023-03-11T19:29:08.616Z,4.20
2023-03-11T19:30:40.309Z,4.20
2023-03-11T19:32:12.100Z,4.10
2023-03-11T19:33:46.878Z,4.10
2023-03-11T19:35:20.899Z,4.10
2023-03-11T19:36:52.604Z,4.10
2023-03-11T19:38:25.538Z,4.10
2023-03-11T19:39:57.236Z,4.10
2023-03-11T19:41:29.101Z,4.00
2023-03-11T19:43:00.882Z,4.00
2023-03-11T19:44:32.592Z,4.00
2023-03-11T19:46:05.533Z,4.00
2023-03-11T19:47:37.882Z,4.00
2023-03-11T19:49:09.608Z,4.00
2023-03-11T19:50:41.440Z,4.00
2023-03-11T19:52:13.623Z,4.00
2023-03-11T19:53:45.912Z,4.00
2023-03-11T19:55:17.622Z,4.00
2023-03-11T19:56:49.964Z,4.00
2023-03-11T19:58:23.695Z,4.00
2023-03-11T19:59:56.102Z,4.00
2023-03-11T20:01:30.392Z,4.00
2023-03-11T20:03:02.738Z,4.00
2023-03-11T20:04:34.616Z,4.10
2023-03-11T20:06:06.807Z,4.00
2023-03-11T20:07:38.576Z,4.00
2023-03-11T20:09:11.526Z,4.00
2023-03-11T20:10:45.657Z,4.00
2023-03-11T20:12:17.376Z,3.90
2023-03-11T20:13:49.159Z,3.90
2023-03-11T20:15:20.862Z,3.90
2023-03-11T20:16:52.758Z,3.90
2023-03-11T20:18:24.537Z,3.80
2023-03-11T20:19:56.743Z,3.90
2023-03-11T20:21:28.472Z,3.80
2023-03-11T20:23:03.715Z,3.80
2023-03-11T20:24:35.484Z,3.80
2023-03-11T20:26:12.804Z,3.80
2023-03-11T20:27:44.640Z,3.80
2023-03-11T20:29:19.429Z,3.70
2023-03-11T20:30:51.324Z,3.70
2023-03-11T20:32:23.193Z,3.70
2023-03-11T20:33:56.348Z,3.70
2023-03-11T20:35:28.113Z,3.70
2023-03-11T20:36:59.974Z,3.70
2023-03-11T20:38:31.777Z,3.70
2023-03-11T20:40:06.260Z,3.70
2023-03-11T20:41:39.897Z,3.70
2023-03-11T20:43:11.602Z,3.60
2023-03-11T20:44:43.320Z,3.60
2023-03-11T20:46:15.055Z,3.60
2023-03-11T20:47:47.795Z,3.60
2023-03-11T20:49:19.569Z,3.60
2023-03-11T20:50:51.325Z,3.60
2023-03-11T20:52:23.080Z,3.60
2023-03-11T20:53:54.871Z,3.60
2023-03-11T20:55:26.616Z,3.60
2023-03-11T20:56:58.347Z,3.60
2023-03-11T20:58:30.311Z,3.60
2023-03-11T21:00:02.132Z,3.60
2023-03-11T21:01:35.308Z,3.60
2023-03-11T21:03:07.130Z,3.60
2023-03-11T21:04:43.906Z,3.50
2023-03-11T21:06:24.521Z,3.50
2023-03-11T21:07:56.284Z,3.50
2023-03-11T21:09:28.080Z,3.50
2023-03-11T21:11:01.413Z,3.50
2023-03-11T21:12:33.256Z,3.50
2023-03-11T21:14:05.825Z,3.50
2023-03-11T21:15:37.618Z,3.50
2023-03-11T21:17:09.402Z,3.60
2023-03-11T21:18:43.270Z,3.50
2023-03-11T21:20:16.720Z,3.50
2023-03-11T21:21:51.781Z,3.50
2023-03-11T21:23:23.925Z,3.50
2023-03-11T21:24:55.852Z,3.50
2023-03-11T21:26:28.066Z,3.50
2023-03-11T21:27:59.805Z,3.50
2023-03-11T21:29:31.611Z,3.40
2023-03-11T21:31:10.688Z,3.50
2023-03-11T21:32:42.636Z,3.50
2023-03-11T21:34:14.385Z,3.50
2023-03-11T21:35:53.867Z,3.50
2023-03-11T21:37:26.649Z,3.50
2023-03-11T21:38:58.481Z,3.50
2023-03-11T21:40:30.271Z,3.50
2023-03-11T21:42:02.454Z,3.50
2023-03-11T21:43:34.579Z,3.50
2023-03-11T21:45:06.970Z,3.50
2023-03-11T21:46:38.956Z,3.50
2023-03-11T21:48:13.504Z,3.40
2023-03-11T21:49:45.258Z,3.50
2023-03-11T21:51:21.621Z,3.50
2023-03-11T21:52:53.437Z,3.50
2023-03-11T21:54:25.116Z,3.50
2023-03-11T21:55:57.199Z,3.50
2023-03-11T21:57:29.018Z,3.50
2023-03-11T21:59:00.782Z,3.50
2023-03-11T22:00:32.672Z,3.50
2023-03-11T22:02:04.491Z,3.50
2023-03-11T22:03:37.549Z,3.50
2023-03-11T22:05:09.662Z,3.50
2023-03-11T22:06:41.505Z,3.50
2023-03-11T22:08:14.581Z,3.40
2023-03-11T22:09:46.361Z,3.50
2023-03-11T22:11:20.113Z,3.40
2023-03-11T22:12:51.860Z,3.50
2023-03-11T22:14:24.504Z,3.40
2023-03-11T22:15:56.500Z,3.40
2023-03-11T22:17:28.403Z,3.40
2023-03-11T22:19:00.273Z,3.40
2023-03-11T22:20:31.963Z,3.40
2023-03-11T22:22:03.730Z,3.40
2023-03-11T22:23:35.705Z,3.40
2023-03-11T22:25:08.104Z,3.40
2023-03-11T22:26:39.815Z,3.40
2023-03-11T22:28:12.824Z,3.40
2023-03-11T22:29:44.611Z,3.40
2023-03-11T22:31:18.395Z,3.40
2023-03-11T22:32:50.768Z,3.50
2023-03-11T22:34:22.626Z,3.40
2023-03-11T22:35:56.414Z,3.40
2023-03-11T22:37:28.261Z,3.40
2023-03-11T22:39:02.418Z,3.50
2023-03-11T22:40:35.278Z,3.40
2023-03-11T22:42:07.176Z,3.40
2023-03-11T22:43:39.212Z,3.50
2023-03-11T22:45:11.342Z,3.50
2023-03-11T22:46:43.021Z,3.50
2023-03-11T22:48:14.889Z,3.50
2023-03-11T22:49:46.764Z,3.50
2023-03-11T22:51:18.486Z,3.50
2023-03-11T22:52:50.219Z,3.50
2023-03-11T22:54:22.435Z,3.50
2023-03-11T22:55:54.824Z,3.50
2023-03-11T22:57:29.883Z,3.50
2023-03-11T22:59:01.870Z,3.50
2023-03-11T23:00:33.918Z,3.50
2023-03-11T23:02:05.777Z,3.50
2023-03-11T23:03:38.688Z,3.50
2023-03-11T23:05:11.060Z,3.50
2023-03-11T23:06:42.766Z,3.50
2023-03-11T23:08:16.244Z,3.50
2023-03-11T23:09:48.111Z,3.50
2023-03-11T23:11:21.230Z,3.50
2023-03-11T23:14:44.832Z,3.50
2023-03-11T23:16:19.569Z,3.50
2023-03-11T23:17:51.631Z,3.50
2023-03-11T23:19:23.359Z,3.50
2023-03-11T23:20:55.183Z,3.50
2023-03-11T23:22:26.868Z,3.50
2023-03-11T23:24:00.613Z,3.50
2023-03-11T23:25:33.073Z,3.50
2023-03-11T23:27:04.954Z,3.50
2023-03-11T23:28:36.848Z,3.50
2023-03-11T23:30:14.116Z,3.50
2023-03-11T23:31:45.781Z,3.50
2023-03-11T23:33:17.468Z,3.50
2023-03-11T23:34:49.197Z,3.50
2023-03-11T23:36:22.958Z,3.60
2023-03-11T23:37:54.686Z,3.60
2023-03-11T23:39:26.434Z,3.60
2023-03-11T23:40:58.323Z,3.60
2023-03-11T23:42:33.677Z,3.60
2023-03-11T23:44:05.777Z,3.60
2023-03-11T23:45:37.580Z,3.50
2023-03-11T23:47:09.328Z,3.50
2023-03-11T23:48:41.295Z,3.60
2023-03-11T23:50:13.040Z,3.60
2023-03-11T23:51:44.709Z,3.60
2023-03-11T23:53:18.780Z,3.60
2023-03-11T23:54:50.522Z,3.60
2023-03-11T23:56:22.390Z,3.60
2023-03-11T23:57:54.090Z,3.60
2023-03-11T23:59:25.774Z,3.60
